sensor_id;sensor_type;location;lat;lon;timestamp;pressure;altitude;pressure_sealevel;temperature;humidity
21779;BME280;11050;52.222;20.916;2023-04-04T00:00:17;101028.59;;;1.52;77.01
21779;BME280;11050;52.222;20.916;2023-04-04T00:02:43;101027.25;;;1.48;78.32
21779;BME280;11050;52.222;20.916;2023-04-04T00:05:08;101020.50;;;1.44;78.24
21779;BME280;11050;52.222;20.916;2023-04-04T00:07:34;101022.06;;;1.38;78.42
21779;BME280;11050;52.222;20.916;2023-04-04T00:10:00;101023.13;;;1.29;79.12
21779;BME280;11050;52.222;20.916;2023-04-04T00:12:26;101023.31;;;1.28;79.61
21779;BME280;11050;52.222;20.916;2023-04-04T00:14:52;101020.94;;;1.25;79.45
21779;BME280;11050;52.222;20.916;2023-04-04T00:17:18;101018.63;;;1.14;80.15
21779;BME280;11050;52.222;20.916;2023-04-04T00:19:44;101005.84;;;1.00;81.09
21779;BME280;11050;52.222;20.916;2023-04-04T00:22:11;100997.56;;;0.93;81.46
21779;BME280;11050;52.222;20.916;2023-04-04T00:24:38;101010.59;;;0.89;82.03
21779;BME280;11050;52.222;20.916;2023-04-04T00:27:04;100999.28;;;0.86;82.81
21779;BME280;11050;52.222;20.916;2023-04-04T00:29:30;101008.41;;;0.85;83.45
21779;BME280;11050;52.222;20.916;2023-04-04T00:31:56;101001.53;;;0.74;84.00
21779;BME280;11050;52.222;20.916;2023-04-04T00:34:22;101007.78;;;0.67;84.61
21779;BME280;11050;52.222;20.916;2023-04-04T00:36:48;101014.38;;;0.64;85.15
21779;BME280;11050;52.222;20.916;2023-04-04T00:39:14;100998.03;;;0.50;86.23
21779;BME280;11050;52.222;20.916;2023-04-04T00:41:39;101005.66;;;0.46;87.08
21779;BME280;11050;52.222;20.916;2023-04-04T00:44:07;101001.78;;;0.41;87.77
21779;BME280;11050;52.222;20.916;2023-04-04T00:46:33;101007.50;;;0.46;87.68
21779;BME280;11050;52.222;20.916;2023-04-04T00:48:58;101001.41;;;0.44;88.18
21779;BME280;11050;52.222;20.916;2023-04-04T00:51:24;100986.41;;;0.33;88.61
21779;BME280;11050;52.222;20.916;2023-04-04T00:53:51;100972.22;;;0.23;89.05
21779;BME280;11050;52.222;20.916;2023-04-04T00:56:18;100993.00;;;0.31;88.96
21779;BME280;11050;52.222;20.916;2023-04-04T00:58:45;100976.47;;;0.18;89.60
21779;BME280;11050;52.222;20.916;2023-04-04T01:01:11;100991.13;;;0.23;89.76
21779;BME280;11050;52.222;20.916;2023-04-04T01:03:37;100969.19;;;0.10;90.36
21779;BME280;11050;52.222;20.916;2023-04-04T01:06:05;100966.84;;;0.15;89.80
21779;BME280;11050;52.222;20.916;2023-04-04T01:08:33;100970.38;;;0.16;90.53
21779;BME280;11050;52.222;20.916;2023-04-04T01:11:01;100958.06;;;0.05;90.76
21779;BME280;11050;52.222;20.916;2023-04-04T01:13:27;100954.50;;;0.05;90.70
21779;BME280;11050;52.222;20.916;2023-04-04T01:15:53;100958.25;;;0.04;91.78
21779;BME280;11050;52.222;20.916;2023-04-04T01:18:21;100966.69;;;0.00;91.96
21779;BME280;11050;52.222;20.916;2023-04-04T01:21:02;100953.53;;;-0.03;92.74
21779;BME280;11050;52.222;20.916;2023-04-04T01:23:58;100952.16;;;-0.07;93.12
21779;BME280;11050;52.222;20.916;2023-04-04T01:26:26;100950.47;;;-0.08;92.93
21779;BME280;11050;52.222;20.916;2023-04-04T01:28:57;100946.44;;;-0.12;93.43
21779;BME280;11050;52.222;20.916;2023-04-04T01:31:39;100957.06;;;-0.18;94.43
21779;BME280;11050;52.222;20.916;2023-04-04T01:37:14;100948.28;;;-0.20;95.13
21779;BME280;11050;52.222;20.916;2023-04-04T01:39:56;100954.03;;;-0.23;95.21
21779;BME280;11050;52.222;20.916;2023-04-04T01:42:24;100949.13;;;-0.28;95.53
21779;BME280;11050;52.222;20.916;2023-04-04T01:44:55;100944.56;;;-0.27;96.15
21779;BME280;11050;52.222;20.916;2023-04-04T01:47:22;100945.44;;;-0.27;95.90
21779;BME280;11050;52.222;20.916;2023-04-04T01:49:48;100945.91;;;-0.31;96.11
21779;BME280;11050;52.222;20.916;2023-04-04T01:52:14;100945.22;;;-0.41;96.46
21779;BME280;11050;52.222;20.916;2023-04-04T01:54:40;100958.41;;;-0.38;96.95
21779;BME280;11050;52.222;20.916;2023-04-04T01:57:05;100948.97;;;-0.34;97.01
21779;BME280;11050;52.222;20.916;2023-04-04T01:59:31;100952.19;;;-0.31;97.13
21779;BME280;11050;52.222;20.916;2023-04-04T02:01:57;100949.09;;;-0.36;97.53
21779;BME280;11050;52.222;20.916;2023-04-04T02:04:23;100947.44;;;-0.37;97.33
21779;BME280;11050;52.222;20.916;2023-04-04T02:06:48;100948.44;;;-0.38;97.90
21779;BME280;11050;52.222;20.916;2023-04-04T02:09:14;100948.78;;;-0.41;98.32
21779;BME280;11050;52.222;20.916;2023-04-04T02:11:40;100944.41;;;-0.50;98.26
21779;BME280;11050;52.222;20.916;2023-04-04T02:14:07;100941.53;;;-0.48;98.82
21779;BME280;11050;52.222;20.916;2023-04-04T02:16:33;100958.22;;;-0.45;99.05
21779;BME280;11050;52.222;20.916;2023-04-04T02:18:58;100948.75;;;-0.49;99.41
21779;BME280;11050;52.222;20.916;2023-04-04T02:21:25;100947.06;;;-0.58;98.90
21779;BME280;11050;52.222;20.916;2023-04-04T02:23:52;100945.22;;;-0.57;99.66
21779;BME280;11050;52.222;20.916;2023-04-04T02:26:18;100948.78;;;-0.57;99.83
21779;BME280;11050;52.222;20.916;2023-04-04T02:28:43;100942.84;;;-0.60;100.00
21779;BME280;11050;52.222;20.916;2023-04-04T02:31:09;100940.16;;;-0.68;100.00
21779;BME280;11050;52.222;20.916;2023-04-04T02:33:35;100943.53;;;-0.66;100.00
21779;BME280;11050;52.222;20.916;2023-04-04T02:36:01;100938.63;;;-0.71;100.00
21779;BME280;11050;52.222;20.916;2023-04-04T02:38:27;100948.75;;;-0.65;100.00
21779;BME280;11050;52.222;20.916;2023-04-04T02:40:53;100942.84;;;-0.68;100.00
21779;BME280;11050;52.222;20.916;2023-04-04T02:43:19;100952.63;;;-0.67;100.00
21779;BME280;11050;52.222;20.916;2023-04-04T02:45:47;100948.72;;;-0.73;100.00
21779;BME280;11050;52.222;20.916;2023-04-04T02:48:13;100945.69;;;-0.78;100.00
21779;BME280;11050;52.222;20.916;2023-04-04T02:50:40;100964.06;;;-0.73;100.00
21779;BME280;11050;52.222;20.916;2023-04-04T02:53:05;100961.53;;;-0.75;100.00
21779;BME280;11050;52.222;20.916;2023-04-04T02:55:31;100957.69;;;-0.72;100.00
21779;BME280;11050;52.222;20.916;2023-04-04T02:57:57;100961.22;;;-0.72;100.00
21779;BME280;11050;52.222;20.916;2023-04-04T03:00:23;100961.38;;;-0.73;100.00
21779;BME280;11050;52.222;20.916;2023-04-04T03:02:56;100961.19;;;-0.80;100.00
21779;BME280;11050;52.222;20.916;2023-04-04T03:05:26;100959.66;;;-0.82;100.00
21779;BME280;11050;52.222;20.916;2023-04-04T03:07:58;100961.19;;;-0.80;100.00
21779;BME280;11050;52.222;20.916;2023-04-04T03:10:27;100957.66;;;-0.80;100.00
21779;BME280;11050;52.222;20.916;2023-04-04T03:12:56;100965.56;;;-0.79;100.00
21779;BME280;11050;52.222;20.916;2023-04-04T03:15:23;100955.09;;;-0.90;100.00
21779;BME280;11050;52.222;20.916;2023-04-04T03:17:49;100966.91;;;-0.91;100.00
21779;BME280;11050;52.222;20.916;2023-04-04T03:20:15;100966.56;;;-0.88;100.00
21779;BME280;11050;52.222;20.916;2023-04-04T03:22:41;100975.69;;;-0.89;100.00
21779;BME280;11050;52.222;20.916;2023-04-04T03:25:07;100959.81;;;-0.92;100.00
21779;BME280;11050;52.222;20.916;2023-04-04T03:27:34;100946.47;;;-1.02;100.00
21779;BME280;11050;52.222;20.916;2023-04-04T03:30:00;100946.66;;;-0.95;100.00
21779;BME280;11050;52.222;20.916;2023-04-04T03:32:26;100954.94;;;-0.88;100.00
21779;BME280;11050;52.222;20.916;2023-04-04T03:34:52;100956.13;;;-0.91;100.00
21779;BME280;11050;52.222;20.916;2023-04-04T03:37:18;100944.97;;;-0.96;100.00
21779;BME280;11050;52.222;20.916;2023-04-04T03:39:43;100953.59;;;-0.92;100.00
21779;BME280;11050;52.222;20.916;2023-04-04T03:42:10;100943.44;;;-0.99;100.00
21779;BME280;11050;52.222;20.916;2023-04-04T03:44:39;100944.78;;;-1.03;100.00
21779;BME280;11050;52.222;20.916;2023-04-04T03:47:05;100954.56;;;-1.02;100.00
21779;BME280;11050;52.222;20.916;2023-04-04T03:49:31;100953.91;;;-0.96;100.00
21779;BME280;11050;52.222;20.916;2023-04-04T03:51:58;100955.22;;;-1.00;100.00
21779;BME280;11050;52.222;20.916;2023-04-04T03:54:24;100947.47;;;-1.03;100.00
21779;BME280;11050;52.222;20.916;2023-04-04T03:56:51;100955.41;;;-1.01;100.00
21779;BME280;11050;52.222;20.916;2023-04-04T03:59:17;100957.09;;;-1.00;100.00
21779;BME280;11050;52.222;20.916;2023-04-04T04:01:43;100954.41;;;-1.00;100.00
21779;BME280;11050;52.222;20.916;2023-04-04T04:04:09;100948.34;;;-1.02;100.00
21779;BME280;11050;52.222;20.916;2023-04-04T04:06:34;100951.34;;;-1.05;100.00
21779;BME280;11050;52.222;20.916;2023-04-04T04:09:00;100954.03;;;-1.05;100.00
21779;BME280;11050;52.222;20.916;2023-04-04T04:11:26;100953.19;;;-1.06;100.00
21779;BME280;11050;52.222;20.916;2023-04-04T04:13:52;100958.44;;;-1.04;100.00
21779;BME280;11050;52.222;20.916;2023-04-04T04:16:18;100956.22;;;-1.09;100.00
21779;BME280;11050;52.222;20.916;2023-04-04T04:18:43;100961.13;;;-1.04;100.00
21779;BME280;11050;52.222;20.916;2023-04-04T04:21:12;100951.84;;;-1.10;100.00
21779;BME280;11050;52.222;20.916;2023-04-04T04:23:38;100949.31;;;-1.03;100.00
21779;BME280;11050;52.222;20.916;2023-04-04T04:26:03;100962.84;;;-0.95;100.00
21779;BME280;11050;52.222;20.916;2023-04-04T04:28:29;100961.00;;;-0.94;100.00
21779;BME280;11050;52.222;20.916;2023-04-04T04:30:55;100948.50;;;-0.96;100.00
21779;BME280;11050;52.222;20.916;2023-04-04T04:33:27;100948.19;;;-0.92;100.00
21779;BME280;11050;52.222;20.916;2023-04-04T04:36:03;100949.88;;;-0.91;100.00
21779;BME280;11050;52.222;20.916;2023-04-04T04:38:30;100959.16;;;-0.86;100.00
21779;BME280;11050;52.222;20.916;2023-04-04T04:40:56;100942.28;;;-0.88;100.00
21779;BME280;11050;52.222;20.916;2023-04-04T04:43:23;100949.38;;;-0.79;100.00
21779;BME280;11050;52.222;20.916;2023-04-04T04:45:48;100939.09;;;-0.75;100.00
21779;BME280;11050;52.222;20.916;2023-04-04T04:48:17;100935.06;;;-0.71;100.00
21779;BME280;11050;52.222;20.916;2023-04-04T04:50:47;100936.94;;;-0.64;100.00
21779;BME280;11050;52.222;20.916;2023-04-04T04:53:13;100949.59;;;-0.56;100.00
21779;BME280;11050;52.222;20.916;2023-04-04T04:55:39;100933.94;;;-0.61;100.00
21779;BME280;11050;52.222;20.916;2023-04-04T04:58:08;100952.13;;;-0.47;100.00
21779;BME280;11050;52.222;20.916;2023-04-04T05:00:36;100946.09;;;-0.41;100.00
21779;BME280;11050;52.222;20.916;2023-04-04T05:03:03;100950.97;;;-0.28;100.00
21779;BME280;11050;52.222;20.916;2023-04-04T05:05:33;100943.72;;;-0.20;100.00
21779;BME280;11050;52.222;20.916;2023-04-04T05:08:01;100947.25;;;-0.03;100.00
21779;BME280;11050;52.222;20.916;2023-04-04T05:10:28;100953.66;;;0.12;100.00
21779;BME280;11050;52.222;20.916;2023-04-04T05:12:55;100937.44;;;0.12;100.00
21779;BME280;11050;52.222;20.916;2023-04-04T05:15:21;100936.91;;;0.25;100.00
21779;BME280;11050;52.222;20.916;2023-04-04T05:17:46;100915.09;;;0.34;100.00
21779;BME280;11050;52.222;20.916;2023-04-04T05:20:13;100939.03;;;0.53;99.04
21779;BME280;11050;52.222;20.916;2023-04-04T05:22:45;100942.56;;;0.62;98.53
21779;BME280;11050;52.222;20.916;2023-04-04T05:25:12;100946.56;;;0.74;97.79
21779;BME280;11050;52.222;20.916;2023-04-04T05:27:39;100932.34;;;0.80;97.08
21779;BME280;11050;52.222;20.916;2023-04-04T05:30:06;100947.88;;;0.86;95.92
21779;BME280;11050;52.222;20.916;2023-04-04T05:32:35;100941.78;;;0.92;95.41
21779;BME280;11050;52.222;20.916;2023-04-04T05:35:01;100945.75;;;1.04;94.31
21779;BME280;11050;52.222;20.916;2023-04-04T05:37:26;100950.84;;;1.07;94.15
21779;BME280;11050;52.222;20.916;2023-04-04T05:39:52;100943.16;;;1.19;93.97
21779;BME280;11050;52.222;20.916;2023-04-04T05:42:18;100949.72;;;1.24;92.61
21779;BME280;11050;52.222;20.916;2023-04-04T05:44:44;100946.28;;;1.30;91.61
21779;BME280;11050;52.222;20.916;2023-04-04T05:47:09;100950.81;;;1.38;90.98
21779;BME280;11050;52.222;20.916;2023-04-04T05:49:35;100945.91;;;1.41;91.17
21779;BME280;11050;52.222;20.916;2023-04-04T05:52:01;100947.72;;;1.49;90.57
21779;BME280;11050;52.222;20.916;2023-04-04T05:54:27;100951.88;;;1.59;90.08
21779;BME280;11050;52.222;20.916;2023-04-04T05:56:52;100961.13;;;1.65;89.47
21779;BME280;11050;52.222;20.916;2023-04-04T05:59:18;100957.34;;;1.74;88.95
21779;BME280;11050;52.222;20.916;2023-04-04T06:01:44;100952.06;;;1.80;88.10
21779;BME280;11050;52.222;20.916;2023-04-04T06:04:10;100955.72;;;1.87;87.27
21779;BME280;11050;52.222;20.916;2023-04-04T06:06:36;100943.47;;;1.91;86.59
21779;BME280;11050;52.222;20.916;2023-04-04T06:09:01;100933.25;;;2.02;86.40
21779;BME280;11050;52.222;20.916;2023-04-04T06:11:27;100945.78;;;2.17;84.99
21779;BME280;11050;52.222;20.916;2023-04-04T06:13:53;100948.16;;;2.20;84.15
21779;BME280;11050;52.222;20.916;2023-04-04T06:16:20;100945.16;;;2.30;84.56
21779;BME280;11050;52.222;20.916;2023-04-04T06:18:46;100945.44;;;2.35;82.98
21779;BME280;11050;52.222;20.916;2023-04-04T06:21:12;100942.53;;;2.36;83.20
21779;BME280;11050;52.222;20.916;2023-04-04T06:23:39;100945.38;;;2.43;82.96
21779;BME280;11050;52.222;20.916;2023-04-04T06:26:06;100952.38;;;2.52;82.39
21779;BME280;11050;52.222;20.916;2023-04-04T06:28:33;100939.09;;;2.57;81.17
21779;BME280;11050;52.222;20.916;2023-04-04T06:30:58;100935.75;;;2.69;81.22
21779;BME280;11050;52.222;20.916;2023-04-04T06:33:24;100939.19;;;2.78;79.83
21779;BME280;11050;52.222;20.916;2023-04-04T06:35:50;100945.81;;;2.75;78.63
21779;BME280;11050;52.222;20.916;2023-04-04T06:38:16;100934.44;;;2.65;79.11
21779;BME280;11050;52.222;20.916;2023-04-04T06:40:42;100940.97;;;2.71;78.60
21779;BME280;11050;52.222;20.916;2023-04-04T06:43:08;100945.19;;;2.88;79.52
21779;BME280;11050;52.222;20.916;2023-04-04T06:45:34;100940.94;;;3.00;78.30
21779;BME280;11050;52.222;20.916;2023-04-04T06:48:01;100930.25;;;3.13;77.04
21779;BME280;11050;52.222;20.916;2023-04-04T06:50:29;100942.97;;;3.27;77.36
21779;BME280;11050;52.222;20.916;2023-04-04T06:53:00;100938.59;;;3.47;76.45
21779;BME280;11050;52.222;20.916;2023-04-04T06:55:26;100929.75;;;3.60;73.78
21779;BME280;11050;52.222;20.916;2023-04-04T06:57:53;100931.53;;;3.74;73.70
21779;BME280;11050;52.222;20.916;2023-04-04T07:00:19;100917.88;;;3.88;71.72
21779;BME280;11050;52.222;20.916;2023-04-04T07:02:45;100929.38;;;4.12;72.18
21779;BME280;11050;52.222;20.916;2023-04-04T07:05:11;100928.63;;;4.24;70.65
21779;BME280;11050;52.222;20.916;2023-04-04T07:07:38;100936.31;;;4.42;69.21
21779;BME280;11050;52.222;20.916;2023-04-04T07:10:05;100921.13;;;4.54;67.47
21779;BME280;11050;52.222;20.916;2023-04-04T07:12:31;100928.56;;;4.73;67.30
21779;BME280;11050;52.222;20.916;2023-04-04T07:14:57;100911.25;;;4.87;66.28
21779;BME280;11050;52.222;20.916;2023-04-04T07:17:23;100925.56;;;5.02;64.08
21779;BME280;11050;52.222;20.916;2023-04-04T07:19:49;100923.31;;;5.12;64.53
21779;BME280;11050;52.222;20.916;2023-04-04T07:22:15;100925.22;;;5.25;61.30
21779;BME280;11050;52.222;20.916;2023-04-04T07:24:41;100925.28;;;5.31;61.24
21779;BME280;11050;52.222;20.916;2023-04-04T07:27:07;100927.44;;;5.62;61.07
21779;BME280;11050;52.222;20.916;2023-04-04T07:29:33;100927.09;;;5.91;58.88
21779;BME280;11050;52.222;20.916;2023-04-04T07:31:59;100924.19;;;5.99;57.55
21779;BME280;11050;52.222;20.916;2023-04-04T07:34:25;100925.03;;;6.26;57.57
21779;BME280;11050;52.222;20.916;2023-04-04T07:36:51;100918.09;;;6.43;56.27
21779;BME280;11050;52.222;20.916;2023-04-04T07:39:18;100914.50;;;6.42;56.12
21779;BME280;11050;52.222;20.916;2023-04-04T07:41:44;100920.16;;;6.47;56.13
21779;BME280;11050;52.222;20.916;2023-04-04T07:44:10;100914.06;;;6.52;55.40
21779;BME280;11050;52.222;20.916;2023-04-04T07:46:36;100919.75;;;6.31;56.96
21779;BME280;11050;52.222;20.916;2023-04-04T07:49:02;100912.84;;;6.09;57.68
21779;BME280;11050;52.222;20.916;2023-04-04T07:51:28;100914.94;;;6.00;58.97
21779;BME280;11050;52.222;20.916;2023-04-04T07:53:56;100911.53;;;5.78;59.23
21779;BME280;11050;52.222;20.916;2023-04-04T07:56:22;100904.38;;;5.64;60.72
21779;BME280;11050;52.222;20.916;2023-04-04T07:58:47;100912.63;;;5.84;60.02
21779;BME280;11050;52.222;20.916;2023-04-04T08:01:13;100897.28;;;5.76;59.83
21779;BME280;11050;52.222;20.916;2023-04-04T08:03:39;100904.38;;;5.58;60.19
21779;BME280;11050;52.222;20.916;2023-04-04T08:06:05;100904.34;;;5.45;61.05
21779;BME280;11050;52.222;20.916;2023-04-04T08:08:31;100904.06;;;5.20;62.19
21779;BME280;11050;52.222;20.916;2023-04-04T08:10:57;100888.22;;;4.90;63.67
21779;BME280;11050;52.222;20.916;2023-04-04T08:13:23;100893.94;;;5.01;64.55
21779;BME280;11050;52.222;20.916;2023-04-04T08:15:49;100899.84;;;5.24;63.07
21779;BME280;11050;52.222;20.916;2023-04-04T08:18:14;100901.16;;;5.41;62.88
21779;BME280;11050;52.222;20.916;2023-04-04T08:20:40;100902.63;;;5.31;61.76
21779;BME280;11050;52.222;20.916;2023-04-04T08:23:07;100891.72;;;5.31;62.32
21779;BME280;11050;52.222;20.916;2023-04-04T08:25:32;100894.69;;;5.42;61.46
21779;BME280;11050;52.222;20.916;2023-04-04T08:27:59;100894.53;;;5.63;59.94
21779;BME280;11050;52.222;20.916;2023-04-04T08:30:25;100893.31;;;5.86;60.64
21779;BME280;11050;52.222;20.916;2023-04-04T08:32:51;100900.25;;;6.01;59.46
21779;BME280;11050;52.222;20.916;2023-04-04T08:35:17;100880.53;;;6.12;57.59
21779;BME280;11050;52.222;20.916;2023-04-04T08:37:46;100889.31;;;6.27;56.75
21779;BME280;11050;52.222;20.916;2023-04-04T08:40:12;100895.97;;;6.64;55.36
21779;BME280;11050;52.222;20.916;2023-04-04T08:42:40;100886.50;;;6.73;53.78
21779;BME280;11050;52.222;20.916;2023-04-04T08:45:11;100892.50;;;6.95;53.08
21779;BME280;11050;52.222;20.916;2023-04-04T08:47:38;100889.03;;;7.19;51.03
21779;BME280;11050;52.222;20.916;2023-04-04T08:50:07;100881.44;;;7.27;49.99
21779;BME280;11050;52.222;20.916;2023-04-04T08:52:34;100874.91;;;7.28;50.36
21779;BME280;11050;52.222;20.916;2023-04-04T08:55:04;100879.28;;;7.36;48.51
21779;BME280;11050;52.222;20.916;2023-04-04T08:57:30;100867.47;;;6.98;49.49
21779;BME280;11050;52.222;20.916;2023-04-04T08:59:56;100867.38;;;6.73;50.24
21779;BME280;11050;52.222;20.916;2023-04-04T09:03:09;100881.69;;;7.13;51.87
21779;BME280;11050;52.222;20.916;2023-04-04T09:05:39;100875.47;;;7.75;49.47
21779;BME280;11050;52.222;20.916;2023-04-04T09:08:06;100878.53;;;7.85;48.33
21779;BME280;11050;52.222;20.916;2023-04-04T09:10:32;100883.09;;;7.66;49.26
21779;BME280;11050;52.222;20.916;2023-04-04T09:12:59;100875.69;;;7.42;47.12
21779;BME280;11050;52.222;20.916;2023-04-04T09:15:26;100875.75;;;7.29;45.98
21779;BME280;11050;52.222;20.916;2023-04-04T09:17:53;100885.66;;;7.23;46.87
21779;BME280;11050;52.222;20.916;2023-04-04T09:20:41;100878.09;;;7.25;47.91
21779;BME280;11050;52.222;20.916;2023-04-04T09:23:16;100883.97;;;7.22;46.71
21779;BME280;11050;52.222;20.916;2023-04-04T09:25:52;100876.50;;;7.05;47.02
21779;BME280;11050;52.222;20.916;2023-04-04T09:28:20;100888.31;;;6.92;46.97
21779;BME280;11050;52.222;20.916;2023-04-04T09:30:51;100875.75;;;6.78;46.19
21779;BME280;11050;52.222;20.916;2023-04-04T09:33:19;100873.94;;;6.65;45.06
21779;BME280;11050;52.222;20.916;2023-04-04T09:36:01;100887.78;;;6.64;44.37
21779;BME280;11050;52.222;20.916;2023-04-04T09:38:28;100883.34;;;6.69;44.01
21779;BME280;11050;52.222;20.916;2023-04-04T09:40:55;100886.88;;;6.83;44.37
21779;BME280;11050;52.222;20.916;2023-04-04T09:43:25;100895.03;;;6.96;42.68
21779;BME280;11050;52.222;20.916;2023-04-04T09:45:53;100884.25;;;7.08;44.70
21779;BME280;11050;52.222;20.916;2023-04-04T09:48:33;100889.25;;;7.55;44.15
21779;BME280;11050;52.222;20.916;2023-04-04T09:50:59;100877.63;;;7.66;42.67
21779;BME280;11050;52.222;20.916;2023-04-04T09:53:28;100858.75;;;7.83;43.53
21779;BME280;11050;52.222;20.916;2023-04-04T09:55:55;100866.97;;;7.83;41.31
21779;BME280;11050;52.222;20.916;2023-04-04T09:58:27;100872.22;;;7.59;41.03
21779;BME280;11050;52.222;20.916;2023-04-04T10:01:00;100866.22;;;7.38;40.69
21779;BME280;11050;52.222;20.916;2023-04-04T10:03:27;100876.75;;;7.34;40.16
21779;BME280;11050;52.222;20.916;2023-04-04T10:06:01;100887.53;;;7.29;38.36
21779;BME280;11050;52.222;20.916;2023-04-04T10:08:29;100883.16;;;7.22;38.42
21779;BME280;11050;52.222;20.916;2023-04-04T10:11:00;100876.06;;;7.45;38.18
21779;BME280;11050;52.222;20.916;2023-04-04T10:13:29;100863.31;;;7.64;38.14
21779;BME280;11050;52.222;20.916;2023-04-04T10:15:58;100873.63;;;7.62;38.40
21779;BME280;11050;52.222;20.916;2023-04-04T10:18:32;100873.94;;;7.47;39.25
21779;BME280;11050;52.222;20.916;2023-04-04T10:21:02;100870.34;;;7.53;39.79
21779;BME280;11050;52.222;20.916;2023-04-04T10:23:29;100872.94;;;7.73;38.33
21779;BME280;11050;52.222;20.916;2023-04-04T10:25:57;100875.97;;;7.90;38.45
21779;BME280;11050;52.222;20.916;2023-04-04T10:28:26;100865.13;;;7.77;37.77
21779;BME280;11050;52.222;20.916;2023-04-04T10:31:31;100863.13;;;7.90;39.23
21779;BME280;11050;52.222;20.916;2023-04-04T10:34:24;100875.63;;;8.04;36.84
21779;BME280;11050;52.222;20.916;2023-04-04T10:37:06;100861.75;;;8.30;36.67
21779;BME280;11050;52.222;20.916;2023-04-04T10:42:09;100862.06;;;8.40;37.75
21779;BME280;11050;52.222;20.916;2023-04-04T10:44:39;100863.03;;;8.28;37.33
21779;BME280;11050;52.222;20.916;2023-04-04T10:47:20;100858.59;;;8.02;38.64
21779;BME280;11050;52.222;20.916;2023-04-04T10:49:49;100862.91;;;7.92;39.10
21779;BME280;11050;52.222;20.916;2023-04-04T10:52:25;100866.78;;;7.84;39.96
21779;BME280;11050;52.222;20.916;2023-04-04T10:54:56;100858.44;;;7.97;39.69
21779;BME280;11050;52.222;20.916;2023-04-04T10:57:24;100855.75;;;8.15;39.93
21779;BME280;11050;52.222;20.916;2023-04-04T11:00:04;100852.34;;;8.44;38.71
21779;BME280;11050;52.222;20.916;2023-04-04T11:05:21;100863.22;;;8.51;37.49
21779;BME280;11050;52.222;20.916;2023-04-04T11:07:56;100840.31;;;8.21;37.99
21779;BME280;11050;52.222;20.916;2023-04-04T11:10:26;100852.34;;;7.95;39.19
21779;BME280;11050;52.222;20.916;2023-04-04T11:12:54;100844.53;;;7.74;38.36
21779;BME280;11050;52.222;20.916;2023-04-04T11:15:22;100851.09;;;7.66;40.40
21779;BME280;11050;52.222;20.916;2023-04-04T11:20:30;100847.81;;;8.07;39.09
21779;BME280;11050;52.222;20.916;2023-04-04T11:29:05;100838.66;;;7.95;38.08
21779;BME280;11050;52.222;20.916;2023-04-04T11:31:42;100845.47;;;7.61;38.96
21779;BME280;11050;52.222;20.916;2023-04-04T11:34:11;100848.31;;;7.42;39.02
21779;BME280;11050;52.222;20.916;2023-04-04T11:39:29;100854.19;;;6.63;43.30
21779;BME280;11050;52.222;20.916;2023-04-04T11:44:32;100848.78;;;6.31;45.44
21779;BME280;11050;52.222;20.916;2023-04-04T11:47:11;100846.72;;;6.13;45.97
21779;BME280;11050;52.222;20.916;2023-04-04T11:49:42;100840.84;;;6.10;46.82
21779;BME280;11050;52.222;20.916;2023-04-04T11:52:14;100840.00;;;6.16;47.36
21779;BME280;11050;52.222;20.916;2023-04-04T11:54:42;100835.16;;;6.31;46.06
21779;BME280;11050;52.222;20.916;2023-04-04T11:57:13;100840.94;;;6.67;46.20
21779;BME280;11050;52.222;20.916;2023-04-04T11:59:42;100842.84;;;7.11;44.58
21779;BME280;11050;52.222;20.916;2023-04-04T12:02:09;100843.50;;;7.37;43.96
21779;BME280;11050;52.222;20.916;2023-04-04T12:04:38;100834.56;;;7.55;41.32
21779;BME280;11050;52.222;20.916;2023-04-04T12:07:07;100833.72;;;7.23;41.97
21779;BME280;11050;52.222;20.916;2023-04-04T12:09:34;100827.31;;;7.05;42.84
21779;BME280;11050;52.222;20.916;2023-04-04T12:12:01;100835.19;;;6.88;43.77
21779;BME280;11050;52.222;20.916;2023-04-04T12:14:27;100834.81;;;6.71;44.59
21779;BME280;11050;52.222;20.916;2023-04-04T12:16:56;100834.66;;;6.53;45.51
21779;BME280;11050;52.222;20.916;2023-04-04T12:19:27;100835.28;;;6.55;46.25
21779;BME280;11050;52.222;20.916;2023-04-04T12:21:56;100833.84;;;6.40;47.09
21779;BME280;11050;52.222;20.916;2023-04-04T12:24:22;100834.72;;;6.34;48.00
21779;BME280;11050;52.222;20.916;2023-04-04T12:26:51;100848.16;;;6.29;47.57
21779;BME280;11050;52.222;20.916;2023-04-04T12:29:21;100847.13;;;6.23;48.28
21779;BME280;11050;52.222;20.916;2023-04-04T12:31:48;100844.81;;;6.14;48.98
21779;BME280;11050;52.222;20.916;2023-04-04T12:34:27;100848.41;;;6.01;48.04
21779;BME280;11050;52.222;20.916;2023-04-04T12:36:56;100836.66;;;5.94;48.59
21779;BME280;11050;52.222;20.916;2023-04-04T12:39:25;100838.56;;;5.94;49.02
21779;BME280;11050;52.222;20.916;2023-04-04T12:42:00;100831.19;;;5.94;48.54
21779;BME280;11050;52.222;20.916;2023-04-04T12:44:33;100824.69;;;6.08;48.89
21779;BME280;11050;52.222;20.916;2023-04-04T12:47:11;100827.19;;;6.16;48.51
21779;BME280;11050;52.222;20.916;2023-04-04T12:49:46;100828.69;;;6.12;48.96
21779;BME280;11050;52.222;20.916;2023-04-04T12:52:19;100824.44;;;6.23;48.03
21779;BME280;11050;52.222;20.916;2023-04-04T12:54:46;100823.19;;;6.25;48.77
21779;BME280;11050;52.222;20.916;2023-04-04T12:57:18;100833.47;;;6.23;46.60
21779;BME280;11050;52.222;20.916;2023-04-04T12:59:46;100814.94;;;6.45;47.84
21779;BME280;11050;52.222;20.916;2023-04-04T13:02:16;100820.69;;;6.81;45.32
21779;BME280;11050;52.222;20.916;2023-04-04T13:04:46;100801.22;;;7.09;45.57
21779;BME280;11050;52.222;20.916;2023-04-04T13:07:29;100802.25;;;7.45;45.12
21779;BME280;11050;52.222;20.916;2023-04-04T13:10:02;100802.50;;;7.68;42.94
21779;BME280;11050;52.222;20.916;2023-04-04T13:12:53;100808.00;;;7.87;43.56